createdAt,value
2022-10-19T00:00:00.946Z,997.6
2022-10-19T00:01:02.803Z,997.6
2022-10-19T00:02:01.253Z,997.6
2022-10-19T00:03:00.956Z,997.6
2022-10-19T00:04:04.902Z,997.6
2022-10-19T00:05:00.939Z,997.6
2022-10-19T00:06:11.249Z,997.6
2022-10-19T00:07:00.974Z,997.6
2022-10-19T00:08:01.263Z,997.6
2022-10-19T00:09:03.973Z,997.7
2022-10-19T00:10:01.283Z,997.6
2022-10-19T00:11:01.294Z,997.7
2022-10-19T00:12:01.256Z,997.7
2022-10-19T00:13:01.317Z,997.6
2022-10-19T00:14:02.118Z,997.7
2022-10-19T00:15:01.675Z,997.7
2022-10-19T00:16:01.414Z,997.7
2022-10-19T00:17:00.962Z,997.7
2022-10-19T00:18:00.942Z,997.7
2022-10-19T00:19:04.497Z,997.7
2022-10-19T00:20:01.360Z,997.6
2022-10-19T00:21:04.124Z,997.6
2022-10-19T00:22:00.929Z,997.7
2022-10-19T00:23:01.750Z,997.6
2022-10-19T00:24:01.266Z,997.7
2022-10-19T00:25:00.954Z,997.7
2022-10-19T00:26:01.963Z,997.7
2022-10-19T00:27:01.228Z,997.7
2022-10-19T00:28:00.952Z,997.7
2022-10-19T00:29:01.169Z,997.7
2022-10-19T00:30:00.990Z,997.7
2022-10-19T00:31:03.325Z,997.8
2022-10-19T00:32:01.251Z,997.8
2022-10-19T00:33:00.949Z,997.7
2022-10-19T00:34:01.268Z,997.7
2022-10-19T00:35:00.949Z,997.7
2022-10-19T00:36:01.715Z,997.7
2022-10-19T00:37:01.403Z,997.7
2022-10-19T00:38:00.934Z,997.7
2022-10-19T00:39:03.257Z,997.7
2022-10-19T00:40:01.326Z,997.7
2022-10-19T00:41:02.172Z,997.7
2022-10-19T00:42:01.247Z,997.7
2022-10-19T00:43:00.938Z,997.7
2022-10-19T00:44:03.886Z,997.6
2022-10-19T00:45:10.555Z,997.6
2022-10-19T00:46:01.185Z,997.6
2022-10-19T00:47:05.788Z,997.6
2022-10-19T00:48:01.574Z,997.6
2022-10-19T00:49:05.952Z,997.6
2022-10-19T00:50:02.201Z,997.7
2022-10-19T00:51:01.309Z,997.7
2022-10-19T00:52:04.147Z,997.7
2022-10-19T00:53:00.912Z,997.7
2022-10-19T00:54:04.118Z,997.6
2022-10-19T00:55:02.361Z,997.7
2022-10-19T00:56:08.979Z,997.7
2022-10-19T00:57:03.469Z,997.7
2022-10-19T00:58:02.262Z,997.7
2022-10-19T00:59:02.646Z,997.7
2022-10-19T01:00:06.527Z,997.7
2022-10-19T01:01:04.846Z,997.7
2022-10-19T01:02:03.315Z,997.7
2022-10-19T01:03:02.177Z,997.7
2022-10-19T01:04:03.902Z,997.7
2022-10-19T01:05:02.116Z,997.7
2022-10-19T01:06:02.473Z,997.7
2022-10-19T01:07:03.304Z,997.7
2022-10-19T01:08:01.194Z,997.7
2022-10-19T01:09:01.246Z,997.7
2022-10-19T01:10:02.309Z,997.6
2022-10-19T01:11:14.143Z,997.7
2022-10-19T01:12:09.556Z,997.6
2022-10-19T01:13:13.489Z,997.6
2022-10-19T01:14:19.856Z,997.7
2022-10-19T01:15:11.367Z,997.6
2022-10-19T01:16:08.343Z,997.6
2022-10-19T01:17:12.179Z,997.6
2022-10-19T01:18:14.191Z,997.6
2022-10-19T01:19:18.587Z,997.6
2022-10-19T01:20:20.401Z,997.6
2022-10-19T01:21:20.413Z,997.6
2022-10-19T01:22:12.549Z,997.6
2022-10-19T01:23:20.403Z,997.6
2022-10-19T01:24:20.391Z,997.7
2022-10-19T01:25:16.628Z,997.6
2022-10-19T01:26:14.141Z,997.6
2022-10-19T01:27:20.409Z,997.6
2022-10-19T01:28:14.513Z,997.6
2022-10-19T01:29:12.959Z,997.6
2022-10-19T01:30:06.657Z,997.6
2022-10-19T01:31:05.457Z,997.6
2022-10-19T01:32:06.477Z,997.6
2022-10-19T01:33:15.895Z,997.6
2022-10-19T01:34:08.308Z,997.6
2022-10-19T01:35:07.475Z,997.6
2022-10-19T01:36:10.626Z,997.6
2022-10-19T01:37:12.345Z,997.6
2022-10-19T01:38:13.498Z,997.6
2022-10-19T01:39:07.805Z,997.6
2022-10-19T01:40:09.020Z,997.6
2022-10-19T01:41:10.543Z,997.6
2022-10-19T01:42:09.573Z,997.6
2022-10-19T01:43:09.826Z,997.6
2022-10-19T01:44:10.678Z,997.6
2022-10-19T01:45:06.169Z,997.6
2022-10-19T01:46:08.303Z,997.6
2022-10-19T01:47:06.116Z,997.6
2022-10-19T01:48:05.566Z,997.6
2022-10-19T01:49:07.966Z,997.6
2022-10-19T01:50:07.472Z,997.6
2022-10-19T01:51:05.103Z,997.6
2022-10-19T01:52:05.307Z,997.7
2022-10-19T01:53:04.946Z,997.7
2022-10-19T01:54:05.814Z,997.7
2022-10-19T01:55:03.578Z,997.7
2022-10-19T01:56:03.017Z,997.7
2022-10-19T01:57:04.167Z,997.7
2022-10-19T01:58:08.249Z,997.7
2022-10-19T01:59:05.466Z,997.7
2022-10-19T02:00:04.282Z,997.8
2022-10-19T02:01:05.365Z,997.8
2022-10-19T02:02:02.809Z,997.8
2022-10-19T02:03:04.616Z,997.8
2022-10-19T02:04:02.978Z,997.7
2022-10-19T02:05:02.750Z,997.8
2022-10-19T02:06:05.564Z,997.8
2022-10-19T02:07:03.960Z,997.8
2022-10-19T02:08:05.882Z,997.9
2022-10-19T02:09:01.295Z,997.8
2022-10-19T02:10:01.302Z,997.8
2022-10-19T02:11:02.455Z,997.8
2022-10-19T02:12:05.061Z,997.8
2022-10-19T02:13:02.709Z,997.8
2022-10-19T02:14:07.200Z,997.8
2022-10-19T02:15:06.654Z,997.9
2022-10-19T02:16:05.500Z,997.8
2022-10-19T02:17:05.355Z,997.9
2022-10-19T02:18:02.787Z,997.9
2022-10-19T02:19:02.233Z,998.0
2022-10-19T02:20:02.496Z,997.9
2022-10-19T02:21:02.519Z,998.0
2022-10-19T02:22:01.605Z,998.0
2022-10-19T02:23:03.290Z,997.9
2022-10-19T02:24:01.229Z,998.0
2022-10-19T02:25:01.207Z,997.9
2022-10-19T02:26:01.432Z,997.9
2022-10-19T02:27:03.251Z,997.9
2022-10-19T02:28:03.443Z,997.9
2022-10-19T02:29:01.333Z,997.9
2022-10-19T02:30:01.112Z,997.9
2022-10-19T02:31:01.844Z,997.9
2022-10-19T02:32:02.008Z,997.9
2022-10-19T02:33:01.336Z,997.8
2022-10-19T02:34:01.563Z,997.8
2022-10-19T02:35:01.720Z,997.8
2022-10-19T02:36:01.356Z,997.8
2022-10-19T02:37:01.415Z,997.8
2022-10-19T02:38:03.717Z,997.8
2022-10-19T02:39:01.509Z,997.8
2022-10-19T02:40:01.699Z,997.8
2022-10-19T02:41:07.795Z,997.8
2022-10-19T02:42:09.091Z,997.8
2022-10-19T02:43:05.853Z,997.8
2022-10-19T02:44:06.922Z,997.8
2022-10-19T02:45:09.302Z,997.8
2022-10-19T02:46:06.556Z,997.8
2022-10-19T02:47:07.122Z,997.7
2022-10-19T02:48:04.702Z,997.7
2022-10-19T02:49:03.471Z,997.8
2022-10-19T02:50:05.011Z,997.8
2022-10-19T02:51:01.525Z,997.7
2022-10-19T02:52:03.401Z,997.7
2022-10-19T02:53:01.225Z,997.7
2022-10-19T02:54:05.093Z,997.7
2022-10-19T02:55:01.216Z,997.7
2022-10-19T02:56:01.219Z,997.7
2022-10-19T02:57:03.331Z,997.7
2022-10-19T02:58:01.234Z,997.7
2022-10-19T02:59:01.526Z,997.6
2022-10-19T03:00:01.113Z,997.6
2022-10-19T03:01:01.276Z,997.6
2022-10-19T03:02:01.247Z,997.6
2022-10-19T03:03:01.031Z,997.6
2022-10-19T03:04:00.910Z,997.6
2022-10-19T03:05:01.250Z,997.6
2022-10-19T03:06:01.199Z,997.6
2022-10-19T03:07:01.514Z,997.6
2022-10-19T03:08:00.906Z,997.6
2022-10-19T03:09:01.213Z,997.6
2022-10-19T03:10:01.589Z,997.6
2022-10-19T03:11:01.485Z,997.7
2022-10-19T03:12:00.934Z,997.7
2022-10-19T03:13:01.233Z,997.7
2022-10-19T03:14:01.246Z,997.7
2022-10-19T03:15:01.205Z,997.7
2022-10-19T03:16:05.913Z,997.8
2022-10-19T03:17:00.928Z,997.8
2022-10-19T03:18:01.266Z,997.8
2022-10-19T03:19:01.196Z,997.8
2022-10-19T03:20:01.206Z,997.8
2022-10-19T03:21:01.849Z,997.8
2022-10-19T03:22:01.289Z,997.9
2022-10-19T03:23:00.907Z,997.8
2022-10-19T03:24:01.201Z,997.8
2022-10-19T03:25:01.301Z,997.8
2022-10-19T03:26:01.240Z,997.8
2022-10-19T03:27:01.211Z,997.8
2022-10-19T03:28:01.211Z,997.8
2022-10-19T03:29:01.249Z,997.8
2022-10-19T03:30:01.334Z,997.8
2022-10-19T03:31:01.208Z,997.8
2022-10-19T03:32:01.271Z,997.9
2022-10-19T03:33:01.341Z,997.9
2022-10-19T03:34:01.562Z,997.8
2022-10-19T03:35:00.925Z,997.9
2022-10-19T03:36:12.557Z,997.8
2022-10-19T03:37:00.929Z,997.8
2022-10-19T03:38:01.187Z,997.8
2022-10-19T03:39:03.064Z,997.9
2022-10-19T03:40:01.605Z,997.9
2022-10-19T03:41:04.457Z,997.9
2022-10-19T03:42:01.245Z,997.9
2022-10-19T03:43:01.228Z,997.9
2022-10-19T03:44:01.511Z,997.9
2022-10-19T03:45:02.014Z,997.9
2022-10-19T03:46:01.297Z,997.9
2022-10-19T03:47:00.912Z,997.9
2022-10-19T03:48:00.917Z,997.9
2022-10-19T03:49:01.956Z,997.9
2022-10-19T03:50:00.901Z,997.9
2022-10-19T03:51:03.021Z,997.9
2022-10-19T03:52:01.201Z,998.0
2022-10-19T03:53:00.940Z,998.0
2022-10-19T03:54:04.146Z,998.0
2022-10-19T03:55:01.543Z,998.0
2022-10-19T03:56:02.700Z,998.0
2022-10-19T03:57:01.219Z,998.0
2022-10-19T03:58:01.196Z,998.0
2022-10-19T03:59:03.187Z,998.0
2022-10-19T04:00:00.947Z,998.0
2022-10-19T04:01:05.456Z,998.0
2022-10-19T04:02:01.205Z,998.0
2022-10-19T04:03:01.035Z,998.0
2022-10-19T04:04:03.996Z,998.0
2022-10-19T04:05:01.650Z,998.0
2022-10-19T04:06:03.000Z,998.0
2022-10-19T04:07:01.228Z,998.0
2022-10-19T04:08:01.179Z,998.0
2022-10-19T04:09:02.507Z,998.0
2022-10-19T04:10:01.224Z,998.0
2022-10-19T04:11:01.645Z,998.0
2022-10-19T04:12:00.918Z,998.0
2022-10-19T04:13:00.912Z,998.0
2022-10-19T04:14:01.435Z,998.1
2022-10-19T04:15:01.235Z,998.1
2022-10-19T04:16:01.468Z,998.1
2022-10-19T04:17:01.762Z,998.1
2022-10-19T04:18:00.962Z,998.1
2022-10-19T04:19:01.420Z,998.1
2022-10-19T04:20:00.937Z,998.1
2022-10-19T04:21:03.294Z,998.1
2022-10-19T04:22:01.228Z,998.1
2022-10-19T04:23:00.910Z,998.1
2022-10-19T04:24:03.206Z,998.1
2022-10-19T04:25:00.917Z,998.1
2022-10-19T04:26:02.358Z,998.1
2022-10-19T04:27:01.402Z,998.1
2022-10-19T04:28:01.353Z,998.1
2022-10-19T04:29:01.085Z,998.1
2022-10-19T04:30:01.224Z,998.1
2022-10-19T04:31:01.734Z,998.1
2022-10-19T04:32:01.213Z,998.1
2022-10-19T04:33:01.199Z,998.1
2022-10-19T04:34:01.264Z,998.1
2022-10-19T04:35:01.204Z,998.1
2022-10-19T04:36:04.185Z,998.1
2022-10-19T04:37:01.219Z,998.1
2022-10-19T04:38:01.246Z,998.1
2022-10-19T04:39:01.047Z,998.1
2022-10-19T04:40:01.270Z,998.1
2022-10-19T04:41:02.068Z,998.1
2022-10-19T04:42:00.901Z,998.1
2022-10-19T04:43:01.590Z,998.1
2022-10-19T04:44:03.378Z,998.1
2022-10-19T04:45:00.918Z,998.1
2022-10-19T04:46:04.872Z,998.1
2022-10-19T04:47:00.952Z,998.1
2022-10-19T04:48:01.210Z,998.1
2022-10-19T04:49:01.414Z,998.0
2022-10-19T04:50:01.242Z,998.0
2022-10-19T04:51:01.669Z,998.1
2022-10-19T04:52:01.257Z,998.1
2022-10-19T04:53:00.918Z,998.1
2022-10-19T04:54:02.190Z,998.1
2022-10-19T04:55:01.305Z,998.1
2022-10-19T04:56:04.922Z,998.1
2022-10-19T04:57:01.198Z,998.1
2022-10-19T04:58:01.186Z,998.1
2022-10-19T04:59:00.933Z,998.1
2022-10-19T05:00:01.641Z,998.1
2022-10-19T05:01:07.013Z,998.1
2022-10-19T05:02:00.920Z,998.1
2022-10-19T05:03:01.195Z,998.1
2022-10-19T05:04:02.203Z,998.1
2022-10-19T05:05:01.198Z,998.1
2022-10-19T05:06:01.439Z,998.1
2022-10-19T05:07:01.264Z,998.1
2022-10-19T05:08:01.148Z,998.2
2022-10-19T05:09:00.931Z,998.2
2022-10-19T05:10:01.323Z,998.2
2022-10-19T05:11:03.026Z,998.2
2022-10-19T05:12:01.132Z,998.3
2022-10-19T05:13:01.244Z,998.2
2022-10-19T05:14:01.793Z,998.2
2022-10-19T05:15:01.203Z,998.2
2022-10-19T05:16:03.860Z,998.2
2022-10-19T05:17:01.270Z,998.3
2022-10-19T05:18:01.216Z,998.3
2022-10-19T05:19:01.227Z,998.3
2022-10-19T05:20:01.311Z,998.3
2022-10-19T05:21:02.693Z,998.3
2022-10-19T05:22:01.208Z,998.3
2022-10-19T05:23:06.165Z,998.3
2022-10-19T05:24:01.202Z,998.3
2022-10-19T05:25:01.197Z,998.3
2022-10-19T05:26:02.838Z,998.3
2022-10-19T05:27:01.218Z,998.3
2022-10-19T05:28:01.199Z,998.4
2022-10-19T05:29:00.998Z,998.4
2022-10-19T05:30:00.935Z,998.4
2022-10-19T05:31:06.874Z,998.4
2022-10-19T05:32:01.221Z,998.4
2022-10-19T05:33:01.206Z,998.3
2022-10-19T05:34:02.993Z,998.4
2022-10-19T05:35:00.931Z,998.4
2022-10-19T05:36:09.101Z,998.4
2022-10-19T05:37:01.209Z,998.4
2022-10-19T05:38:00.924Z,998.4
2022-10-19T05:39:04.923Z,998.4
2022-10-19T05:40:01.226Z,998.4
2022-10-19T05:41:00.918Z,998.4
2022-10-19T05:42:01.254Z,998.4
2022-10-19T05:43:01.208Z,998.4
2022-10-19T05:44:01.958Z,998.4
2022-10-19T05:45:01.482Z,998.4
2022-10-19T05:46:02.509Z,998.4
2022-10-19T05:47:01.418Z,998.4
2022-10-19T05:48:01.200Z,998.4
2022-10-19T05:49:01.532Z,998.4
2022-10-19T05:50:00.961Z,998.4
2022-10-19T05:51:02.926Z,998.4
2022-10-19T05:52:00.924Z,998.4
2022-10-19T05:53:01.229Z,998.4
2022-10-19T05:54:01.275Z,998.4
2022-10-19T05:55:01.238Z,998.4
2022-10-19T05:56:04.258Z,998.4
2022-10-19T05:57:00.931Z,998.4
2022-10-19T05:58:01.193Z,998.4
2022-10-19T05:59:03.348Z,998.4
2022-10-19T06:00:00.995Z,998.4
2022-10-19T06:01:01.878Z,998.4
2022-10-19T06:02:01.274Z,998.4
2022-10-19T06:03:01.282Z,998.4
2022-10-19T06:04:02.463Z,998.4
2022-10-19T06:05:01.207Z,998.4
2022-10-19T06:06:03.692Z,998.5
2022-10-19T06:07:01.424Z,998.5
2022-10-19T06:08:01.212Z,998.5
2022-10-19T06:09:01.255Z,998.5
2022-10-19T06:10:00.923Z,998.4
2022-10-19T06:11:06.384Z,998.4
2022-10-19T06:12:01.465Z,998.4
2022-10-19T06:13:01.210Z,998.4
2022-10-19T06:14:03.755Z,998.4
2022-10-19T06:15:01.212Z,998.4
2022-10-19T06:16:01.308Z,998.4
2022-10-19T06:17:01.195Z,998.4
2022-10-19T06:18:03.318Z,998.5
2022-10-19T06:19:01.317Z,998.4
2022-10-19T06:20:01.233Z,998.5
2022-10-19T06:21:02.712Z,998.5
2022-10-19T06:22:01.262Z,998.5
2022-10-19T06:23:01.614Z,998.5
2022-10-19T06:24:03.013Z,998.5
2022-10-19T06:25:01.193Z,998.5
2022-10-19T06:26:02.811Z,998.5
2022-10-19T06:27:01.218Z,998.5
2022-10-19T06:28:02.748Z,998.4
2022-10-19T06:29:02.507Z,998.5
2022-10-19T06:30:01.240Z,998.5
2022-10-19T06:31:01.788Z,998.5
2022-10-19T06:32:01.230Z,998.5
2022-10-19T06:33:01.292Z,998.5
2022-10-19T06:34:01.865Z,998.5
2022-10-19T06:35:00.910Z,998.5
2022-10-19T06:36:05.797Z,998.5
2022-10-19T06:37:01.192Z,998.5
2022-10-19T06:38:01.232Z,998.5
2022-10-19T06:39:01.333Z,998.5
2022-10-19T06:40:04.848Z,998.5
2022-10-19T06:41:01.541Z,998.5
2022-10-19T06:42:00.931Z,998.5
2022-10-19T06:43:01.442Z,998.5
2022-10-19T06:44:01.253Z,998.5
2022-10-19T06:45:01.208Z,998.5
2022-10-19T06:46:04.487Z,998.5
2022-10-19T06:47:01.198Z,998.5
2022-10-19T06:48:03.616Z,998.5
2022-10-19T06:49:02.174Z,998.5
2022-10-19T06:50:02.099Z,998.6
2022-10-19T06:51:06.209Z,998.6
2022-10-19T06:52:01.237Z,998.6
2022-10-19T06:53:00.916Z,998.6
2022-10-19T06:54:00.925Z,998.6
2022-10-19T06:55:01.768Z,998.6
2022-10-19T06:56:03.142Z,998.6
2022-10-19T06:57:00.932Z,998.6
2022-10-19T06:58:01.236Z,998.6
2022-10-19T06:59:00.927Z,998.6
2022-10-19T07:00:01.384Z,998.5
2022-10-19T07:01:01.369Z,998.5
2022-10-19T07:02:01.191Z,998.6
2022-10-19T07:03:01.212Z,998.6
2022-10-19T07:04:01.232Z,998.5
2022-10-19T07:05:04.637Z,998.5
2022-10-19T07:06:02.970Z,998.5
2022-10-19T07:07:00.918Z,998.5
2022-10-19T07:08:01.296Z,998.5
2022-10-19T07:09:01.222Z,998.5
2022-10-19T07:10:01.334Z,998.5
2022-10-19T07:11:05.511Z,998.6
2022-10-19T07:12:00.921Z,998.6
2022-10-19T07:13:01.479Z,998.6
2022-10-19T07:14:01.226Z,998.6
2022-10-19T07:15:01.300Z,998.6
2022-10-19T07:16:04.037Z,998.5
2022-10-19T07:17:00.920Z,998.5
2022-10-19T07:18:01.210Z,998.6
2022-10-19T07:19:01.204Z,998.6
2022-10-19T07:20:00.976Z,998.6
2022-10-19T07:21:04.164Z,998.6
2022-10-19T07:22:01.364Z,998.7
2022-10-19T07:23:00.922Z,998.7
2022-10-19T07:24:01.423Z,998.7
2022-10-19T07:25:01.232Z,998.7
2022-10-19T07:26:04.435Z,998.7
2022-10-19T07:27:01.271Z,998.7
2022-10-19T07:28:01.126Z,998.7
2022-10-19T07:29:01.531Z,998.7
2022-10-19T07:30:01.219Z,998.7
2022-10-19T07:31:05.690Z,998.7
2022-10-19T07:32:01.203Z,998.7
2022-10-19T07:33:01.229Z,998.7
2022-10-19T07:34:03.248Z,998.7
2022-10-19T07:35:01.416Z,998.7
2022-10-19T07:36:02.711Z,998.7
2022-10-19T07:37:00.947Z,998.8
2022-10-19T07:38:00.942Z,998.8
2022-10-19T07:39:01.725Z,998.8
2022-10-19T07:40:00.978Z,998.8
2022-10-19T07:41:02.839Z,998.8
2022-10-19T07:42:01.207Z,998.8
2022-10-19T07:43:01.234Z,998.8
2022-10-19T07:44:01.541Z,998.9
2022-10-19T07:45:00.909Z,998.8
2022-10-19T07:46:04.239Z,998.8
2022-10-19T07:47:00.941Z,998.8
2022-10-19T07:48:01.202Z,998.8
2022-10-19T07:49:02.664Z,998.8
2022-10-19T07:50:00.935Z,998.8
2022-10-19T07:51:04.922Z,998.8
2022-10-19T07:52:00.922Z,998.8
2022-10-19T07:53:00.935Z,998.9
2022-10-19T07:54:01.476Z,998.9
2022-10-19T07:55:01.220Z,998.9
2022-10-19T07:56:03.490Z,998.9
2022-10-19T07:57:01.091Z,998.9
2022-10-19T07:58:01.206Z,998.9
2022-10-19T07:59:01.512Z,998.9
2022-10-19T08:00:01.384Z,998.9
2022-10-19T08:01:01.481Z,998.9
2022-10-19T08:02:00.942Z,998.9
2022-10-19T08:03:31.660Z,998.9
2022-10-19T08:04:49.137Z,998.9
2022-10-19T08:05:04.307Z,998.9
2022-10-19T08:06:01.277Z,998.9
2022-10-19T08:07:01.216Z,998.9
2022-10-19T08:08:01.574Z,998.9
2022-10-19T08:09:01.442Z,998.9
2022-10-19T08:10:01.265Z,998.9
2022-10-19T08:11:07.090Z,998.9
2022-10-19T08:12:02.340Z,998.9
2022-10-19T08:13:00.924Z,999.0
2022-10-19T08:14:02.037Z,998.9
2022-10-19T08:15:00.897Z,999.0
2022-10-19T08:16:01.303Z,999.0
2022-10-19T08:17:01.364Z,998.9
2022-10-19T08:18:00.922Z,998.9
2022-10-19T08:19:04.480Z,998.9
2022-10-19T08:20:00.993Z,999.0
2022-10-19T08:21:01.875Z,999.0
2022-10-19T08:22:01.204Z,999.0
2022-10-19T08:23:01.204Z,999.0
2022-10-19T08:24:01.307Z,998.9
2022-10-19T08:25:01.347Z,999.0
2022-10-19T08:26:00.918Z,999.0
2022-10-19T08:27:01.207Z,999.0
2022-10-19T08:28:00.925Z,999.0
2022-10-19T08:29:02.336Z,999.0
2022-10-19T08:30:01.196Z,999.0
2022-10-19T08:31:08.416Z,999.0
2022-10-19T08:32:01.227Z,999.0
2022-10-19T08:33:02.004Z,999.0
2022-10-19T08:34:01.616Z,999.0
2022-10-19T08:35:00.984Z,999.0
2022-10-19T08:36:03.610Z,999.1
2022-10-19T08:37:06.733Z,999.1
2022-10-19T08:38:02.921Z,999.1
2022-10-19T08:39:01.774Z,999.1
2022-10-19T08:40:01.225Z,999.1
2022-10-19T08:41:12.213Z,999.1
2022-10-19T08:42:03.729Z,999.1
2022-10-19T08:43:07.957Z,999.1
2022-10-19T08:44:20.406Z,999.2
2022-10-19T08:45:20.165Z,999.2
2022-10-19T08:46:14.905Z,999.1
2022-10-19T08:47:10.924Z,999.2
2022-10-19T08:48:20.410Z,999.2
2022-10-19T08:49:01.891Z,999.2
2022-10-19T08:50:02.463Z,999.2
2022-10-19T08:51:02.354Z,999.2
2022-10-19T08:52:06.604Z,999.2
2022-10-19T08:53:04.300Z,999.2
2022-10-19T08:54:07.240Z,999.2
2022-10-19T08:55:03.360Z,999.3
2022-10-19T08:56:12.180Z,999.2
2022-10-19T08:57:14.481Z,999.2
2022-10-19T08:58:15.403Z,999.3
2022-10-19T08:59:10.962Z,999.3
2022-10-19T09:00:06.771Z,999.2
2022-10-19T09:01:08.037Z,999.2
2022-10-19T09:02:09.665Z,999.3
2022-10-19T09:03:13.152Z,999.2
2022-10-19T09:04:05.885Z,999.3
2022-10-19T09:05:13.177Z,999.3
2022-10-19T09:06:15.972Z,999.3
2022-10-19T09:07:20.407Z,999.3
2022-10-19T09:08:01.771Z,999.3
2022-10-19T09:09:01.357Z,999.3
2022-10-19T09:10:15.684Z,999.3
2022-10-19T09:11:01.273Z,999.3
2022-10-19T09:12:05.118Z,999.3
2022-10-19T09:13:05.420Z,999.3
2022-10-19T09:14:10.788Z,999.2
2022-10-19T09:15:03.735Z,999.3
2022-10-19T09:16:03.362Z,999.2
2022-10-19T09:17:05.748Z,999.3
2022-10-19T09:18:01.604Z,999.3
2022-10-19T09:19:01.416Z,999.4
2022-10-19T09:20:14.758Z,999.4
2022-10-19T09:21:07.133Z,999.4
2022-10-19T09:22:06.919Z,999.3
2022-10-19T09:23:13.212Z,999.4
2022-10-19T09:24:06.187Z,999.4
2022-10-19T09:25:09.471Z,999.4
2022-10-19T09:26:02.615Z,999.4
2022-10-19T09:27:01.953Z,999.4
2022-10-19T09:28:12.136Z,999.4
2022-10-19T09:29:09.069Z,999.4
2022-10-19T09:30:04.058Z,999.3
2022-10-19T09:31:01.578Z,999.3
2022-10-19T09:32:04.315Z,999.3
2022-10-19T09:33:02.065Z,999.4
2022-10-19T09:34:06.869Z,999.4
2022-10-19T09:35:04.888Z,999.4
2022-10-19T09:36:03.890Z,999.4
2022-10-19T09:37:01.466Z,999.5
2022-10-19T09:38:04.043Z,999.4
2022-10-19T09:39:01.949Z,999.4
2022-10-19T09:40:01.285Z,999.5
2022-10-19T09:41:13.700Z,999.5
2022-10-19T09:42:07.718Z,999.5
2022-10-19T09:43:04.459Z,999.5
2022-10-19T09:44:01.744Z,999.5
2022-10-19T09:45:12.114Z,999.4
2022-10-19T09:46:18.574Z,999.4
2022-10-19T09:47:14.548Z,999.4
2022-10-19T09:48:10.663Z,999.5
2022-10-19T09:49:03.465Z,999.4
2022-10-19T09:50:14.373Z,999.4
2022-10-19T09:51:03.099Z,999.4
2022-10-19T09:52:00.909Z,999.5
2022-10-19T09:53:03.983Z,999.5
2022-10-19T09:54:01.200Z,999.5
2022-10-19T09:55:04.577Z,999.5
2022-10-19T09:56:05.792Z,999.5
2022-10-19T09:57:02.533Z,999.5
2022-10-19T09:58:03.930Z,999.5
2022-10-19T09:59:00.962Z,999.5
2022-10-19T10:00:00.982Z,999.5
2022-10-19T10:01:02.278Z,999.5
2022-10-19T10:02:14.186Z,999.5
2022-10-19T10:03:01.293Z,999.5
2022-10-19T10:04:06.051Z,999.5
2022-10-19T10:05:06.069Z,999.5
2022-10-19T10:06:05.264Z,999.5
2022-10-19T10:07:02.785Z,999.5
2022-10-19T10:08:01.918Z,999.5
2022-10-19T10:09:03.006Z,999.5
2022-10-19T10:10:01.060Z,999.5
2022-10-19T10:11:09.552Z,999.5
2022-10-19T10:12:04.059Z,999.5
2022-10-19T10:13:01.419Z,999.4
2022-10-19T10:14:11.542Z,999.5
2022-10-19T10:15:03.708Z,999.5
2022-10-19T10:16:05.688Z,999.5
2022-10-19T10:17:03.127Z,999.4
2022-10-19T10:18:02.057Z,999.4
2022-10-19T10:19:04.943Z,999.5
2022-10-19T10:20:13.611Z,999.4
2022-10-19T10:21:05.982Z,999.5
2022-10-19T10:22:03.716Z,999.5
2022-10-19T10:23:04.156Z,999.4
2022-10-19T10:24:04.714Z,999.5
2022-10-19T10:25:02.177Z,999.5
2022-10-19T10:26:02.748Z,999.4
2022-10-19T10:27:03.594Z,999.5
2022-10-19T10:28:03.586Z,999.5
2022-10-19T10:29:01.668Z,999.5
2022-10-19T10:30:06.277Z,999.5
2022-10-19T10:31:05.330Z,999.5
2022-10-19T10:32:05.476Z,999.5
2022-10-19T10:33:09.383Z,999.5
2022-10-19T10:34:10.707Z,999.5
2022-10-19T10:35:04.030Z,999.5
2022-10-19T10:36:04.414Z,999.6
2022-10-19T10:37:03.586Z,999.6
2022-10-19T10:38:08.619Z,999.6
2022-10-19T10:39:06.579Z,999.7
2022-10-19T10:40:05.070Z,999.7
2022-10-19T10:41:04.499Z,999.7
2022-10-19T10:42:10.475Z,999.7
2022-10-19T10:43:05.829Z,999.7
2022-10-19T10:44:05.551Z,999.8
2022-10-19T10:45:02.212Z,999.8
2022-10-19T10:46:05.328Z,999.8
2022-10-19T10:47:03.767Z,999.9
2022-10-19T10:48:18.298Z,999.9
2022-10-19T10:49:03.459Z,1000.0
2022-10-19T10:50:05.441Z,999.9
2022-10-19T10:51:01.929Z,1000.0
2022-10-19T10:52:05.670Z,1000.0
2022-10-19T10:53:04.132Z,1000.0
2022-10-19T10:54:19.082Z,1000.1
2022-10-19T10:55:12.318Z,1000.0
2022-10-19T10:56:01.803Z,1000.1
2022-10-19T10:57:08.311Z,1000.0
2022-10-19T10:58:14.594Z,1000.1
2022-10-19T10:59:05.656Z,1000.1
2022-10-19T11:00:05.290Z,1000.1
2022-10-19T11:01:07.688Z,1000.1
2022-10-19T11:02:11.677Z,1000.1
2022-10-19T11:03:07.885Z,1000.1
2022-10-19T11:04:05.359Z,1000.1
2022-10-19T11:05:06.029Z,1000.1
2022-10-19T11:06:01.707Z,1000.1
2022-10-19T11:07:14.445Z,1000.1
2022-10-19T11:08:06.762Z,1000.1
2022-10-19T11:09:08.596Z,1000.1
2022-10-19T11:10:06.619Z,1000.1
2022-10-19T11:11:10.441Z,1000.2
2022-10-19T11:12:04.406Z,1000.2
2022-10-19T11:13:07.739Z,1000.2
2022-10-19T11:14:17.573Z,1000.2
2022-10-19T11:15:06.151Z,1000.2
2022-10-19T11:16:10.341Z,1000.2
2022-10-19T11:17:05.767Z,1000.1
2022-10-19T11:18:13.272Z,1000.1
2022-10-19T11:19:11.210Z,1000.1
2022-10-19T11:20:01.081Z,1000.1
2022-10-19T11:21:08.772Z,1000.1
2022-10-19T11:22:13.326Z,1000.1
2022-10-19T11:23:12.996Z,1000.2
2022-10-19T11:24:12.582Z,1000.2
2022-10-19T11:25:19.050Z,1000.2
2022-10-19T11:26:16.695Z,1000.2
2022-10-19T11:27:16.687Z,1000.2
2022-10-19T11:28:13.953Z,1000.2
2022-10-19T11:29:17.657Z,1000.3
2022-10-19T11:30:08.138Z,1000.3
2022-10-19T11:31:11.315Z,1000.3
2022-10-19T11:32:01.324Z,1000.4
2022-10-19T11:33:06.946Z,1000.4
2022-10-19T11:34:16.163Z,1000.4
2022-10-19T11:35:16.623Z,1000.4
2022-10-19T11:36:11.277Z,1000.4
2022-10-19T11:37:14.889Z,1000.4
2022-10-19T11:38:20.233Z,1000.4
2022-10-19T11:39:17.973Z,1000.4
2022-10-19T11:40:12.132Z,1000.5
2022-10-19T11:41:17.735Z,1000.4
2022-10-19T11:42:10.489Z,1000.4
2022-10-19T11:43:05.018Z,1000.4
2022-10-19T11:44:15.348Z,1000.5
2022-10-19T11:45:14.127Z,1000.5
2022-10-19T11:46:10.479Z,1000.5
2022-10-19T11:47:19.449Z,1000.5
2022-10-19T11:48:17.002Z,1000.5
2022-10-19T11:49:15.997Z,1000.5
2022-10-19T11:50:12.898Z,1000.5
2022-10-19T11:51:20.842Z,1000.5
2022-10-19T11:52:09.642Z,1000.6
2022-10-19T11:53:08.820Z,1000.6
2022-10-19T11:54:15.506Z,1000.5
2022-10-19T11:55:14.535Z,1000.5
2022-10-19T11:56:08.363Z,1000.6
2022-10-19T11:57:11.445Z,1000.6
2022-10-19T11:58:17.289Z,1000.6
2022-10-19T12:00:14.541Z,1000.7
2022-10-19T12:01:10.773Z,1000.7
2022-10-19T12:02:13.543Z,1000.8
2022-10-19T12:03:15.552Z,1000.8
2022-10-19T12:04:20.405Z,1000.8
2022-10-19T12:05:04.387Z,1000.9
2022-10-19T12:06:10.559Z,1000.9
2022-10-19T12:07:15.606Z,1000.9
2022-10-19T12:09:17.031Z,1000.9
2022-10-19T12:10:11.917Z,1000.9
2022-10-19T12:11:08.527Z,1000.9
2022-10-19T12:12:15.765Z,1000.9
2022-10-19T12:13:04.706Z,1000.9
2022-10-19T12:14:05.134Z,1000.9
2022-10-19T12:15:13.968Z,1000.9
2022-10-19T12:16:03.250Z,1000.9
2022-10-19T12:17:07.907Z,1000.9
2022-10-19T12:18:08.727Z,1000.9
2022-10-19T12:19:03.847Z,1000.9
2022-10-19T12:20:05.583Z,1000.9
2022-10-19T12:21:07.248Z,1000.9
2022-10-19T12:22:03.784Z,1001.0
2022-10-19T12:23:15.241Z,1001.0
2022-10-19T12:24:04.288Z,1000.9
2022-10-19T12:25:01.224Z,1001.0
2022-10-19T12:26:05.032Z,1000.9
2022-10-19T12:27:02.162Z,1000.9
2022-10-19T12:28:02.942Z,1000.9
2022-10-19T12:29:11.716Z,1000.9
2022-10-19T12:30:06.678Z,1000.9
2022-10-19T12:31:03.561Z,1000.9
2022-10-19T12:32:04.110Z,1001.0
2022-10-19T12:33:08.745Z,1000.9
2022-10-19T12:34:09.887Z,1001.0
2022-10-19T12:35:12.023Z,1000.9
2022-10-19T12:36:15.688Z,1001.0
2022-10-19T12:37:11.823Z,1001.0
2022-10-19T12:38:09.826Z,1001.0
2022-10-19T12:39:11.447Z,1001.0
2022-10-19T12:40:13.289Z,1001.1
2022-10-19T12:41:09.815Z,1001.1
2022-10-19T12:42:09.660Z,1001.1
2022-10-19T12:43:09.736Z,1001.0
2022-10-19T12:44:14.592Z,1001.1
2022-10-19T12:45:16.061Z,1001.1
2022-10-19T12:46:14.090Z,1001.1
2022-10-19T12:47:09.654Z,1001.0
2022-10-19T12:48:19.397Z,1001.0
2022-10-19T12:49:20.404Z,1001.1
2022-10-19T12:50:01.233Z,1001.0